createdAt,value
2022-12-20T00:01:35.539Z,12.40
2022-12-20T00:04:05.781Z,12.70
2022-12-20T00:06:36.927Z,12.30
2022-12-20T00:09:07.080Z,12.30
2022-12-20T00:11:35.139Z,12.30
2022-12-20T00:14:02.639Z,12.60
2022-12-20T00:16:30.327Z,12.30
2022-12-20T00:19:03.527Z,12.50
2022-12-20T00:21:32.409Z,12.30
2022-12-20T00:24:00.666Z,12.30
2022-12-20T00:26:29.428Z,12.30
2022-12-20T00:28:57.409Z,12.30
2022-12-20T00:31:27.080Z,12.20
2022-12-20T00:33:56.133Z,12.30
2022-12-20T00:36:26.153Z,12.20
2022-12-20T00:38:55.001Z,12.20
2022-12-20T00:41:25.319Z,12.20
2022-12-20T00:43:53.470Z,12.20
2022-12-20T00:46:26.498Z,12.20
2022-12-20T00:48:54.934Z,12.30
2022-12-20T00:51:25.962Z,12.20
2022-12-20T00:53:54.318Z,12.30
2022-12-20T00:56:22.640Z,12.30
2022-12-20T00:58:50.379Z,12.30
2022-12-20T01:01:23.965Z,12.20
2022-12-20T01:03:52.574Z,12.30
2022-12-20T01:06:20.724Z,12.30
2022-12-20T01:08:51.062Z,12.30
2022-12-20T01:11:24.699Z,12.20
2022-12-20T01:13:54.798Z,12.40
2022-12-20T01:16:25.474Z,12.40
2022-12-20T01:18:53.552Z,12.40
2022-12-20T01:21:22.476Z,12.40
2022-12-20T01:23:50.822Z,12.30
2022-12-20T01:26:20.687Z,12.50
2022-12-20T01:28:52.099Z,12.50
2022-12-20T01:31:21.127Z,12.40
2022-12-20T01:33:50.058Z,12.90
2022-12-20T01:36:20.292Z,12.50
2022-12-20T01:38:47.979Z,12.50
2022-12-20T01:41:22.441Z,12.50
2022-12-20T01:43:55.685Z,12.50
2022-12-20T01:46:26.195Z,12.50
2022-12-20T01:48:55.395Z,12.50
2022-12-20T01:51:24.723Z,12.90
2022-12-20T01:53:58.016Z,12.80
2022-12-20T01:56:25.641Z,12.70
2022-12-20T01:58:55.086Z,12.50
2022-12-20T02:01:25.160Z,12.60
2022-12-20T02:03:54.999Z,12.60
2022-12-20T02:06:26.006Z,12.60
2022-12-20T02:08:56.594Z,12.60
2022-12-20T02:11:46.333Z,12.60
2022-12-20T02:14:16.980Z,12.60
2022-12-20T02:17:12.280Z,12.70
2022-12-20T02:20:11.252Z,12.70
2022-12-20T02:23:02.540Z,12.70
2022-12-20T02:25:57.718Z,12.60
2022-12-20T02:28:30.327Z,12.60
2022-12-20T02:31:01.065Z,12.60
2022-12-20T02:33:28.981Z,12.70
2022-12-20T02:35:56.534Z,12.60
2022-12-20T02:38:34.676Z,12.70
2022-12-20T02:41:11.898Z,12.60
2022-12-20T02:44:01.849Z,12.60
2022-12-20T02:46:30.938Z,12.60
2022-12-20T02:49:04.315Z,12.50
2022-12-20T02:51:33.321Z,12.60
2022-12-20T02:54:02.400Z,12.50
2022-12-20T02:56:42.819Z,12.50
2022-12-20T02:59:36.258Z,12.60
2022-12-20T03:02:05.404Z,12.50
2022-12-20T03:04:37.610Z,12.50
2022-12-20T03:07:08.427Z,12.40
2022-12-20T03:09:39.657Z,12.40
2022-12-20T03:12:08.459Z,12.40
2022-12-20T03:14:41.103Z,12.40
2022-12-20T03:17:10.696Z,12.40
2022-12-20T03:19:38.975Z,12.40
2022-12-20T03:22:06.699Z,12.50
2022-12-20T03:24:34.550Z,12.40
2022-12-20T03:27:06.637Z,12.40
2022-12-20T03:29:34.141Z,12.40
2022-12-20T03:32:01.809Z,12.30
2022-12-20T03:34:29.923Z,12.30
2022-12-20T03:36:57.440Z,12.30
2022-12-20T03:39:25.201Z,12.30
2022-12-20T03:41:54.540Z,12.30
2022-12-20T03:44:22.028Z,12.30
2022-12-20T03:46:50.475Z,12.30
2022-12-20T03:49:18.578Z,12.10
2022-12-20T03:51:50.836Z,12.20
2022-12-20T03:54:18.989Z,12.30
2022-12-20T03:57:07.381Z,12.20
2022-12-20T03:59:35.654Z,12.20
2022-12-20T04:02:05.909Z,12.30
2022-12-20T04:04:34.712Z,12.20
2022-12-20T04:07:02.181Z,12.10
2022-12-20T04:09:29.809Z,12.20
2022-12-20T04:12:04.897Z,12.20
2022-12-20T04:14:34.279Z,12.20
2022-12-20T04:17:01.805Z,12.20
2022-12-20T04:19:29.384Z,12.20
2022-12-20T04:22:04.791Z,12.20
2022-12-20T04:24:44.051Z,12.20
2022-12-20T04:27:20.415Z,12.70
2022-12-20T04:29:47.985Z,12.20
2022-12-20T04:32:21.240Z,12.20
2022-12-20T04:34:50.039Z,12.60
2022-12-20T04:37:18.698Z,13.20
2022-12-20T04:39:51.012Z,12.10
2022-12-20T04:42:21.785Z,12.60
2022-12-20T04:44:50.927Z,12.10
2022-12-20T04:47:24.297Z,12.10
2022-12-20T04:49:53.430Z,12.10
2022-12-20T04:52:43.581Z,12.10
2022-12-20T04:55:15.228Z,12.80
2022-12-20T04:57:42.792Z,12.10
2022-12-20T05:00:11.376Z,12.10
2022-12-20T05:02:43.672Z,12.10
2022-12-20T05:05:15.344Z,12.10
2022-12-20T05:07:48.896Z,12.10
2022-12-20T05:10:16.491Z,12.10
2022-12-20T05:12:45.189Z,12.10
2022-12-20T05:15:21.081Z,12.10
2022-12-20T05:17:48.730Z,12.10
2022-12-20T05:20:16.630Z,13.20
2022-12-20T05:23:05.268Z,12.10
2022-12-20T05:25:54.135Z,12.10
2022-12-20T05:28:22.257Z,12.10
2022-12-20T05:30:50.116Z,12.10
2022-12-20T05:33:17.776Z,12.10
2022-12-20T05:35:45.278Z,12.10
2022-12-20T05:38:15.322Z,12.10
2022-12-20T05:40:43.337Z,12.10
2022-12-20T05:43:12.164Z,12.10
2022-12-20T05:45:50.041Z,12.10
2022-12-20T05:48:21.880Z,12.30
2022-12-20T05:50:50.082Z,12.40
2022-12-20T05:53:24.929Z,12.10
2022-12-20T05:55:55.591Z,12.10
2022-12-20T05:58:28.760Z,12.20
2022-12-20T06:01:02.380Z,12.20
2022-12-20T06:03:32.327Z,12.20
2022-12-20T06:06:01.160Z,11.50
2022-12-20T06:08:32.170Z,12.20
2022-12-20T06:11:04.897Z,12.20
2022-12-20T06:13:37.287Z,12.20
2022-12-20T06:16:05.057Z,12.20
2022-12-20T06:18:34.004Z,12.20
2022-12-20T06:21:03.847Z,12.20
2022-12-20T06:23:34.318Z,12.20
2022-12-20T06:26:11.244Z,12.90
2022-12-20T06:28:52.218Z,12.20
2022-12-20T06:31:25.621Z,12.20
2022-12-20T06:33:55.001Z,12.20
2022-12-20T06:36:25.166Z,12.20
2022-12-20T06:38:58.347Z,12.30
2022-12-20T06:41:25.930Z,10.80
2022-12-20T06:43:54.507Z,12.20
2022-12-20T06:46:22.061Z,12.30
2022-12-20T06:48:50.662Z,14.20
2022-12-20T06:51:19.121Z,12.30
2022-12-20T06:53:47.347Z,12.40
2022-12-20T06:56:15.093Z,12.40
2022-12-20T06:58:42.818Z,12.30
2022-12-20T07:01:10.308Z,12.40
2022-12-20T07:03:37.877Z,12.30
2022-12-20T07:06:05.611Z,12.30
2022-12-20T07:08:33.071Z,12.20
2022-12-20T07:11:10.517Z,12.20
2022-12-20T07:13:46.301Z,9.80
2022-12-20T07:16:19.506Z,12.10
2022-12-20T07:19:25.046Z,13.50
2022-12-20T07:22:14.424Z,12.10
2022-12-20T07:25:02.452Z,12.00
2022-12-20T07:27:34.148Z,12.20
2022-12-20T07:30:10.752Z,12.20
2022-12-20T07:32:59.775Z,11.10
2022-12-20T07:35:39.395Z,12.10
2022-12-20T07:38:12.291Z,12.10
2022-12-20T07:40:45.573Z,12.10
2022-12-20T07:43:15.640Z,12.20
2022-12-20T07:45:57.377Z,11.80
2022-12-20T07:48:29.157Z,11.80
2022-12-20T07:51:36.312Z,11.70
2022-12-20T07:54:23.560Z,11.50
2022-12-20T07:56:59.321Z,11.60
2022-12-20T07:59:36.421Z,11.50
2022-12-20T08:02:19.014Z,11.40
2022-12-20T08:05:09.268Z,11.20
2022-12-20T08:07:39.546Z,11.10
2022-12-20T08:10:14.268Z,11.20
2022-12-20T08:12:49.680Z,10.90
2022-12-20T08:15:40.315Z,10.90
2022-12-20T08:18:07.991Z,10.60
2022-12-20T08:20:35.733Z,10.10
2022-12-20T08:23:05.642Z,10.50
2022-12-20T08:25:41.131Z,10.60
2022-12-20T08:28:11.976Z,10.30
2022-12-20T08:30:42.258Z,12.40
2022-12-20T08:33:19.504Z,9.20
2022-12-20T08:35:56.646Z,11.10
2022-12-20T08:38:28.395Z,8.20
2022-12-20T08:41:01.758Z,11.50
2022-12-20T08:43:31.834Z,11.20
2022-12-20T08:46:48.902Z,10.00
2022-12-20T08:49:21.637Z,10.80
2022-12-20T08:51:51.965Z,9.80
2022-12-20T08:54:25.160Z,9.80
2022-12-20T08:56:58.136Z,10.00
2022-12-20T08:59:28.631Z,9.80
2022-12-20T09:01:56.475Z,9.90
2022-12-20T09:04:29.791Z,10.40
2022-12-20T09:06:57.378Z,9.80
2022-12-20T09:09:25.022Z,11.70
2022-12-20T09:11:54.997Z,9.80
2022-12-20T09:14:23.752Z,9.70
2022-12-20T09:16:51.414Z,9.70
2022-12-20T09:19:21.462Z,9.60
2022-12-20T09:21:49.170Z,9.60
2022-12-20T09:24:19.477Z,7.50
2022-12-20T09:26:50.554Z,10.60
2022-12-20T09:29:28.244Z,9.60
2022-12-20T09:31:59.828Z,11.80
2022-12-20T09:34:30.486Z,9.80
2022-12-20T09:37:01.266Z,10.20
2022-12-20T09:39:52.351Z,10.00
2022-12-20T09:42:25.454Z,11.10
2022-12-20T09:45:12.460Z,9.50
2022-12-20T09:50:12.135Z,10.70
2022-12-20T09:52:25.222Z,9.60
2022-12-20T09:59:22.324Z,7.40
2022-12-20T10:01:54.110Z,9.40
2022-12-20T10:04:55.407Z,9.90
2022-12-20T10:08:03.420Z,9.40
2022-12-20T10:11:22.914Z,9.10
2022-12-20T10:14:50.034Z,9.30
2022-12-20T10:17:38.023Z,9.10
2022-12-20T10:20:44.617Z,9.10
2022-12-20T10:23:41.661Z,9.00
2022-12-20T10:26:12.599Z,9.20
2022-12-20T10:28:45.955Z,9.00
2022-12-20T10:31:22.068Z,9.00
2022-12-20T10:33:50.006Z,9.10
2022-12-20T10:36:38.395Z,11.80
2022-12-20T10:39:10.185Z,9.00
2022-12-20T10:41:40.713Z,9.20
2022-12-20T10:44:32.174Z,9.50
2022-12-20T10:47:50.937Z,9.00
2022-12-20T10:50:27.715Z,8.90
2022-12-20T10:53:45.750Z,9.00
2022-12-20T10:56:39.041Z,9.00
2022-12-20T10:59:18.875Z,8.90
2022-12-20T11:01:51.765Z,10.20
2022-12-20T11:04:49.433Z,9.20
2022-12-20T11:07:27.886Z,7.00
2022-12-20T11:10:00.484Z,9.00
2022-12-20T11:12:28.318Z,9.30
2022-12-20T11:15:33.615Z,11.60
2022-12-20T11:19:30.900Z,9.00
2022-12-20T11:23:12.445Z,9.00
2022-12-20T11:27:03.738Z,11.70
2022-12-20T11:29:56.064Z,9.10
2022-12-20T11:33:12.442Z,9.10
2022-12-20T11:44:23.914Z,9.50
2022-12-20T11:48:05.479Z,9.20
2022-12-20T11:51:40.215Z,11.00
2022-12-20T11:55:43.132Z,9.30
2022-12-20T11:59:35.666Z,9.10
2022-12-20T12:10:53.304Z,9.80
2022-12-20T12:18:19.779Z,9.60
2022-12-20T12:22:49.065Z,9.40
2022-12-20T12:38:58.442Z,9.70
2022-12-20T12:57:48.710Z,9.50
2022-12-20T13:01:28.475Z,8.60
2022-12-20T13:05:10.374Z,11.60
2022-12-20T13:09:24.280Z,9.80
2022-12-20T13:15:46.962Z,8.60
2022-12-20T13:27:35.808Z,9.50
2022-12-20T13:30:54.218Z,9.60
2022-12-20T13:34:00.522Z,9.70
2022-12-20T13:38:41.321Z,9.70
2022-12-20T13:40:42.578Z,10.90
2022-12-20T13:47:54.228Z,9.80
2022-12-20T13:50:57.320Z,9.80
2022-12-20T13:57:46.833Z,9.80
2022-12-20T14:01:19.754Z,9.50
2022-12-20T14:05:13.260Z,9.50
2022-12-20T14:08:43.819Z,9.50
2022-12-20T14:16:09.021Z,10.30
2022-12-20T14:18:56.968Z,9.60
2022-12-20T14:27:45.933Z,8.20
2022-12-20T14:30:28.483Z,10.40
2022-12-20T14:34:47.059Z,11.00
2022-12-20T14:38:06.318Z,9.20
2022-12-20T14:45:51.179Z,9.20
2022-12-20T14:48:46.229Z,9.30
2022-12-20T14:53:29.977Z,9.30
2022-12-20T14:57:00.840Z,8.60
2022-12-20T15:13:08.214Z,8.70
2022-12-20T15:16:56.760Z,9.90
2022-12-20T15:24:02.035Z,8.50
2022-12-20T15:42:07.377Z,6.30
2022-12-20T15:45:54.584Z,7.50
2022-12-20T15:49:08.460Z,9.60
2022-12-20T15:52:17.396Z,9.30
2022-12-20T16:15:28.838Z,6.50
2022-12-20T16:27:03.737Z,9.20
2022-12-20T16:34:12.675Z,6.40
2022-12-20T16:41:46.980Z,6.20
2022-12-20T16:45:29.864Z,8.90
2022-12-20T17:00:44.329Z,6.30
2022-12-20T17:12:32.482Z,4.60
2022-12-20T17:16:09.888Z,7.20
2022-12-20T17:20:05.462Z,8.10
2022-12-20T17:22:55.079Z,5.60
2022-12-20T17:26:50.053Z,5.80
2022-12-20T17:29:57.664Z,4.90
2022-12-20T17:32:39.862Z,5.40
2022-12-20T17:36:12.234Z,5.50
2022-12-20T17:44:06.093Z,7.20
2022-12-20T17:46:39.837Z,8.10
2022-12-20T17:50:02.347Z,7.90
2022-12-20T17:53:38.280Z,7.00
2022-12-20T17:56:57.322Z,5.10
2022-12-20T17:59:49.601Z,5.10
2022-12-20T18:03:45.001Z,3.30
2022-12-20T18:07:12.732Z,4.90
2022-12-20T18:22:30.860Z,7.00
2022-12-20T18:29:51.544Z,6.80
2022-12-20T18:32:35.315Z,4.70
2022-12-20T18:36:16.643Z,5.50
2022-12-20T18:45:22.006Z,5.00
2022-12-20T18:57:19.640Z,3.50
2022-12-20T19:09:26.263Z,7.00
2022-12-20T19:13:09.501Z,4.50
2022-12-20T20:01:25.196Z,4.00
2022-12-20T20:03:55.179Z,4.30
2022-12-20T20:06:23.227Z,6.10
2022-12-20T20:08:51.498Z,4.30
2022-12-20T20:11:19.370Z,6.70
2022-12-20T20:13:47.331Z,4.40
2022-12-20T20:16:22.261Z,4.40
2022-12-20T20:18:51.456Z,6.50
2022-12-20T20:21:22.571Z,4.40
2022-12-20T20:23:51.772Z,5.10
2022-12-20T20:26:22.732Z,4.40
2022-12-20T20:28:50.536Z,7.00
2022-12-20T20:31:19.952Z,5.10
2022-12-20T20:33:48.059Z,5.00
2022-12-20T20:36:16.821Z,4.40
2022-12-20T20:38:44.529Z,4.30
2022-12-20T20:41:12.636Z,6.00
2022-12-20T20:43:43.620Z,6.20
2022-12-20T20:46:14.217Z,4.40
2022-12-20T20:48:42.723Z,6.50
2022-12-20T20:51:11.017Z,4.30
2022-12-20T20:53:39.416Z,5.20
2022-12-20T20:56:08.459Z,5.20
2022-12-20T20:58:36.792Z,4.10
2022-12-20T21:01:08.496Z,6.20
2022-12-20T21:03:37.253Z,4.10
2022-12-20T21:08:56.450Z,4.00
2022-12-20T21:11:24.421Z,4.00
2022-12-20T21:13:53.494Z,4.50
2022-12-20T21:16:22.515Z,4.10
2022-12-20T21:18:55.114Z,5.60
2022-12-20T21:21:24.485Z,5.90
2022-12-20T21:23:53.454Z,3.90
2022-12-20T21:26:22.410Z,6.10
2022-12-20T21:28:49.897Z,4.90
2022-12-20T21:31:19.500Z,4.00
2022-12-20T21:33:47.235Z,4.00
2022-12-20T21:36:17.417Z,5.60
2022-12-20T21:38:53.647Z,6.10
2022-12-20T21:41:23.459Z,6.60
2022-12-20T21:43:51.584Z,6.40
2022-12-20T21:46:19.131Z,5.40
2022-12-20T21:48:47.084Z,4.00
2022-12-20T21:51:16.232Z,6.20
2022-12-20T21:53:47.238Z,4.00
2022-12-20T21:56:15.718Z,5.40
2022-12-20T21:58:44.021Z,5.00
2022-12-20T22:01:14.219Z,4.00
2022-12-20T22:03:42.626Z,5.90
2022-12-20T22:06:10.735Z,4.00
2022-12-20T22:08:38.267Z,5.20
2022-12-20T22:11:13.283Z,4.50
2022-12-20T22:13:42.310Z,4.60
2022-12-20T22:16:12.220Z,5.70
2022-12-20T22:18:48.224Z,6.60
2022-12-20T22:21:16.675Z,5.40
2022-12-20T22:23:44.191Z,3.90
2022-12-20T22:26:14.687Z,3.90
2022-12-20T22:28:54.018Z,3.80
2022-12-20T22:31:22.236Z,3.80
2022-12-20T22:33:51.591Z,3.70
2022-12-20T22:36:19.650Z,4.50
2022-12-20T22:38:48.230Z,5.90
2022-12-20T22:41:22.989Z,3.60
2022-12-20T22:43:50.578Z,5.30
2022-12-20T22:46:18.902Z,3.60
2022-12-20T22:48:46.963Z,3.50
2022-12-20T22:51:16.917Z,3.50
2022-12-20T22:53:45.407Z,3.40
2022-12-20T22:56:14.436Z,3.70
2022-12-20T22:58:42.112Z,3.40
2022-12-20T23:01:12.734Z,3.40
2022-12-20T23:03:40.894Z,4.50
2022-12-20T23:06:11.410Z,3.40
2022-12-20T23:08:39.389Z,3.50
2022-12-20T23:11:38.545Z,3.50
2022-12-20T23:14:29.062Z,4.80
2022-12-20T23:16:58.055Z,3.50
2022-12-20T23:19:26.018Z,3.50
2022-12-20T23:22:11.737Z,3.40
2022-12-20T23:24:39.215Z,3.40
2022-12-20T23:27:06.614Z,3.30
2022-12-20T23:29:34.146Z,5.90
2022-12-20T23:32:01.846Z,3.30
2022-12-20T23:34:29.360Z,3.30
2022-12-20T23:36:56.764Z,3.30
2022-12-20T23:39:24.199Z,3.40
2022-12-20T23:41:51.732Z,3.40
2022-12-20T23:44:19.411Z,4.30
2022-12-20T23:46:46.837Z,3.30
2022-12-20T23:49:14.318Z,4.90
2022-12-20T23:51:42.603Z,4.40
2022-12-20T23:54:10.896Z,3.30
2022-12-20T23:56:38.378Z,3.30
2022-12-20T23:59:05.855Z,3.30
